• Join FlightAware (Why Join?)
  • Login
  • US Flag 
09:24AM EDT


 

Airport Tracker/Info


-or-


 

Live Flight TrackerFlight Track Log ✈ AAY841 ✈ 17-Apr-2014 ✈ KTRI - KPIE

Flight Track Log - Related Links

Times and Time Zones

All times are in EDT time to prevent confusion due to time zone crossing. See the AAY841 flight status page for this flight to view local times or setup timezone preferences in your user account.

Time Position Orientation Groundspeed Altitude Reporting Facility
EDT Latitude Longitude Course Direction KTS MPH feet Rate Location/Type
09:09AM 36.5322 -82.3283 175° South 255 293 4,900  Level Atlanta Center
09:10AM 36.4733 -82.2858 150° Southeast 299 344 8,200 2,520 Climbing Atlanta Center
09:11AM 36.4044 -82.2872 181° South 288 331 10,000 1,260 Climbing Atlanta Center
09:12AM 36.3253 -82.2864 180° South 282 325 10,800 1,620 Climbing Atlanta Center
09:13AM 36.2314 -82.2833 178° South 316 364 13,300 2,520 Climbing Atlanta Center
09:14AM 35.9456 -82.4264 175° South  Level Estimated
09:14AM 36.1353 -82.2803 179° South 342 394 15,900  Level Atlanta Center
09:15AM 36.0372 -82.2797 180° South 347 399 17,800 2,040 Climbing Atlanta Center
09:16AM 35.9350 -82.2769 179° South 359 413 20,000 2,040 Climbing Atlanta Center
09:17AM 35.8286 -82.2767 180° South 371 427 21,900 1,800 Climbing Atlanta Center
09:18AM 35.7222 -82.2739 179° South 382 440 23,600 1,620 Climbing Atlanta Center
09:19AM 35.5992 -82.2739 180° South 394 453 25,200 960 Climbing Atlanta Center
09:24AM 34.9879 -82.2986 183° South 438 504 29,400 780 Climbing FlightAware ADS-B (KDZJ)
09:25AM 34.8763 -82.3054 183° South 433 498 30,000 300 Climbing FlightAware ADS-B (KDZJ)
09:26AM 34.7591 -82.3122 183° South 432 497 30,000  Level FlightAware ADS-B (KDZJ)
09:27AM 34.6918 -82.3162 183° South 438 504 30,000 240 Level FlightAware ADS-B (KDZJ)
09:28AM 34.5514 -82.3244 183° South 432 497 30,500 840 Climbing FlightAware ADS-B (KDZJ)
09:29AM 34.4044 -82.3344 183° South 438 504 32,200 1,200 Climbing Atlanta Center
09:30AM 34.2833 -82.3419 183° South 438 504 33,400 1,140 Climbing Atlanta Center
09:31AM 34.1644 -82.3492 183° South 438 504 34,500 1,140 Climbing Atlanta Center
09:32AM 34.0372 -82.3567 183° South 443 510 35,700 720 Climbing Atlanta Center
09:33AM 33.9186 -82.3642 183° South 436 502 36,000 120 Climbing Atlanta Center
09:34AM 33.8122 -82.3686 182° South 436 502 36,000  Level Atlanta Center
09:35AM 33.6892 -82.3786 184° South 442 509 36,000  Level Atlanta Center
09:36AM 33.5722 -82.3858 183° South 428 493 36,000  Level Atlanta Center
09:37AM 33.4514 -82.3931 183° South 436 502 36,000  Level Atlanta Center
09:38AM 33.3344 -82.3978 182° South 430 495 36,000  Level Atlanta Center
09:39AM 33.2011 -82.4053 183° South 430 495 36,000  Level Atlanta Center
09:40AM 33.0819 -82.4075 181° South 430 495 36,000  Level Atlanta Center
09:41AM 32.9633 -82.4172 184° South 430 495 36,000  Level Atlanta Center
09:42AM 32.8422 -82.4269 184° South 430 495 36,000  Level Atlanta Center
09:43AM 32.7214 -82.4317 182° South 430 495 36,000  Level Atlanta Center
09:44AM 32.6044 -82.4361 182° South 435 501 36,000  Level Atlanta Center
09:45AM 32.4856 -82.4431 183° South 435 501 36,000  Level Atlanta Center
09:47AM 32.3078 -82.4525 183° South 442 509 36,000  Level Jacksonville Center
09:48AM 32.1867 -82.4606 183° South 442 509 36,000  Level Jacksonville Center
09:49AM 32.0553 -82.4686 183° South 442 509 36,000  Level Jacksonville Center
09:50AM 31.9361 -82.4764 183° South 442 509 36,000  Level Jacksonville Center
09:51AM 31.8150 -82.4817 182° South 437 503 36,000  Level Jacksonville Center
09:52AM 31.6942 -82.4872 182° South 442 509 36,000  Level Jacksonville Center
09:53AM 31.5708 -82.4950 183° South 442 509 36,000  Level Jacksonville Center
09:54AM 31.4497 -82.5006 182° South 442 509 36,000  Level Jacksonville Center
09:55AM 31.3392 -82.5108 185° South 442 509 36,000  Level Jacksonville Center
10:00AM 30.6782 -82.5435 183° South 430 495 36,000  Level FlightAware ADS-B (KMCO)
10:01AM 30.5458 -82.5506 183° South 431 496 36,000 -180 Level FlightAware ADS-B (KMCO)
10:02AM 30.4674 -82.5453 169° South 443 510 35,700 -900 Descending FlightAware ADS-B (KMCO)
10:05AM 30.1290 -82.4731 170° South 449 517 33,000 -1,020 Descending FlightAware ADS-B (KMCO)
10:05AM 30.0481 -82.4558 170° South 448 516 32,300 -1,080 Descending FlightAware ADS-B (KMCO)
10:06AM 29.9625 -82.4376 170° South 442 509 31,600 -1,020 Descending FlightAware ADS-B (KMCO)
10:07AM 29.8643 -82.4170 170° South 441 507 30,800 -960 Descending FlightAware ADS-B (KMCO)
10:08AM 29.7827 -82.3997 170° South 428 493 30,200 -1,080 Descending FlightAware ADS-B (KMCO)
10:08AM 29.7243 -82.3874 170° South 425 489 29,600 -2,040 Descending FlightAware ADS-B (KMCO)
10:09AM 29.5774 -82.3574 174° South 407 468 26,700 -2,160 Descending FlightAware ADS-B (KMCO)
10:10AM 29.5293 -82.3517 174° South 393 452 25,800 -1,740 Descending FlightAware ADS-B (KMCO)
10:11AM 29.4435 -82.3413 174° South 383 441 24,600 -1,740 Descending FlightAware ADS-B (KMCO)
10:11AM 29.3908 -82.3350 174° South 381 438 23,700 -1,860 Descending FlightAware ADS-B (KMCO)
10:12AM 29.3290 -82.3276 174° South 371 427 22,600 -1,680 Descending FlightAware ADS-B (KMCO)
10:12AM 29.2538 -82.3186 174° South 371 427 21,500 -1,620 Descending FlightAware ADS-B (KMCO)
10:14AM 29.1320 -82.3043 175° South 361 415 19,500 -1,740 Descending FlightAware ADS-B (KMCO)
10:15AM 29.0243 -82.2915 173° South 355 409 17,500 -1,800 Descending FlightAware ADS-B (KMCO)
10:16AM 28.9419 -82.2816 173° South 322 371 16,100 -1,620 Descending FlightAware ADS-B (KMCO)
10:17AM 28.8739 -82.2560 174° South 338 389 14,700 -1,560 Descending FlightAware ADS-B (KMCO)
10:17AM 28.7994 -82.2476 174° South 333 383 13,500 -1,320 Descending FlightAware ADS-B (KMCO)
10:18AM 28.7372 -82.2422 180° South 328 377 12,800 -1,260 Descending FlightAware ADS-B (KMCO)
10:19AM 28.6170 -82.2409 179° South 319 367 11,000 -1,020 Descending FlightAware ADS-B (KMCO)
10:20AM 28.5550 -82.2399 179° South 319 367 10,800 -240 Descending FlightAware ADS-B (KMCO)
10:20AM 28.5314 -82.2408 193° South 321 369 10,800  Level FlightAware ADS-B (KMCO)
10:21AM 28.5202 -82.2445 210° Southwest 320 368 10,800 -180 Level FlightAware ADS-B (KMCO)
10:21AM 28.4896 -82.2785 244° Southwest 317 365 10,700 -720 Descending FlightAware ADS-B (KMCO)
10:22AM 28.4553 -82.3653 246° West 283 326 9,800 -540 Descending FlightAware ADS-B (KMCO)
10:23AM 28.4000 -82.4833 246° West 278 320 9,500 -840 Descending Tampa TRACON
10:24AM 28.3667 -82.5667 246° West 272 313 7,900 -1,680 Descending Tampa TRACON
10:25AM 28.3333 -82.6500 246° West 268 308 6,200 -1,680 Descending Tampa TRACON
10:26AM 28.3000 -82.7167 240° Southwest 266 306 4,600 -1,080 Descending Tampa TRACON
10:27AM 28.2667 -82.8000 246° West 267 307 4,100 -780 Descending Tampa TRACON
10:28AM 28.2167 -82.8500 221° Southwest 259 298 3,100 -540 Descending Tampa TRACON
10:29AM 28.1667 -82.9000 221° Southwest 260 299 3,100  Level Tampa TRACON
10:30AM 28.1000 -82.9000 180° South 250 288 3,100  Level Tampa TRACON
10:31AM 28.0333 -82.9000 180° South 249 287 3,100  Level Tampa TRACON
10:32AM 27.9667 -82.9000 180° South 243 280 3,100  Level Tampa TRACON
10:33AM 27.9000 -82.8833 168° South 192 221 3,100  Level Tampa TRACON
10:34AM 27.8667 -82.8500 139° Southeast 164 189 3,100 -60 Level Tampa TRACON
10:35AM 27.8333 -82.8167 139° Southeast 171 197 3,000 -600 Descending Tampa TRACON
10:36AM 27.8333 -82.7667 90° East 169 194 2,000 -840 Descending Tampa TRACON
10:37AM 27.8333 -82.7167 90° East 125 144 1,400 -540 Descending Tampa TRACON
10:38AM 27.8500 -82.6833 61° Northeast 135 155 1,000 -600 Descending Tampa TRACON
10:39AM 27.9000 -82.6833 360° North 138 159 300 -720 Descending Tampa TRACON
10:41AM 27.9100 -82.6875 310° West  Level Estimated